sensor_id;sensor_type;location;lat;lon;timestamp;temperature;humidity
13598;DHT22;38563;54.258;12.574;2023-08-08T00:02:23;14.30;99.90
13598;DHT22;38563;54.258;12.574;2023-08-08T00:05:15;14.30;99.90
13598;DHT22;38563;54.258;12.574;2023-08-08T00:07:45;14.30;99.90
13598;DHT22;38563;54.258;12.574;2023-08-08T00:10:24;14.30;99.90
13598;DHT22;38563;54.258;12.574;2023-08-08T00:13:07;14.30;99.90
13598;DHT22;38563;54.258;12.574;2023-08-08T00:15:42;14.30;99.90
13598;DHT22;38563;54.258;12.574;2023-08-08T00:18:32;14.30;99.90
13598;DHT22;38563;54.258;12.574;2023-08-08T00:21:11;14.30;99.90
13598;DHT22;38563;54.258;12.574;2023-08-08T00:23:52;14.30;99.90
13598;DHT22;38563;54.258;12.574;2023-08-08T00:26:30;14.30;99.90
13598;DHT22;38563;54.258;12.574;2023-08-08T00:29:00;14.30;99.90
13598;DHT22;38563;54.258;12.574;2023-08-08T00:31:30;14.40;99.90
13598;DHT22;38563;54.258;12.574;2023-08-08T00:34:09;14.50;99.90
13598;DHT22;38563;54.258;12.574;2023-08-08T00:36:56;14.40;99.90
13598;DHT22;38563;54.258;12.574;2023-08-08T00:39:34;14.40;99.90
13598;DHT22;38563;54.258;12.574;2023-08-08T00:42:25;14.40;99.90
13598;DHT22;38563;54.258;12.574;2023-08-08T00:44:59;14.50;99.90
13598;DHT22;38563;54.258;12.574;2023-08-08T00:47:37;14.50;99.90
13598;DHT22;38563;54.258;12.574;2023-08-08T00:50:10;14.50;99.90
13598;DHT22;38563;54.258;12.574;2023-08-08T00:52:42;14.40;99.90
13598;DHT22;38563;54.258;12.574;2023-08-08T00:55:27;14.40;99.90
13598;DHT22;38563;54.258;12.574;2023-08-08T00:58:00;14.40;99.90
13598;DHT22;38563;54.258;12.574;2023-08-08T01:00:30;14.40;99.90
13598;DHT22;38563;54.258;12.574;2023-08-08T01:03:00;14.40;99.90
13598;DHT22;38563;54.258;12.574;2023-08-08T01:05:38;14.40;99.90
13598;DHT22;38563;54.258;12.574;2023-08-08T01:08:19;14.50;99.90
13598;DHT22;38563;54.258;12.574;2023-08-08T01:10:57;14.40;99.90
13598;DHT22;38563;54.258;12.574;2023-08-08T01:13:31;14.30;99.90
13598;DHT22;38563;54.258;12.574;2023-08-08T01:16:07;14.40;99.90
13598;DHT22;38563;54.258;12.574;2023-08-08T01:18:36;14.40;99.90
13598;DHT22;38563;54.258;12.574;2023-08-08T01:21:06;14.40;99.90
13598;DHT22;38563;54.258;12.574;2023-08-08T01:23:46;14.30;99.90
13598;DHT22;38563;54.258;12.574;2023-08-08T01:26:26;14.30;99.90
13598;DHT22;38563;54.258;12.574;2023-08-08T01:28:55;14.30;99.90
13598;DHT22;38563;54.258;12.574;2023-08-08T01:31:25;14.30;99.90
13598;DHT22;38563;54.258;12.574;2023-08-08T01:33:54;14.30;99.90
13598;DHT22;38563;54.258;12.574;2023-08-08T01:36:28;14.30;99.90
13598;DHT22;38563;54.258;12.574;2023-08-08T01:39:03;14.30;99.90
13598;DHT22;38563;54.258;12.574;2023-08-08T01:41:52;14.30;99.90
13598;DHT22;38563;54.258;12.574;2023-08-08T01:44:22;14.20;99.90
13598;DHT22;38563;54.258;12.574;2023-08-08T01:46:54;14.20;99.90
13598;DHT22;38563;54.258;12.574;2023-08-08T01:49:26;14.20;99.90
13598;DHT22;38563;54.258;12.574;2023-08-08T01:52:00;14.30;99.90
13598;DHT22;38563;54.258;12.574;2023-08-08T01:54:28;14.30;99.90
13598;DHT22;38563;54.258;12.574;2023-08-08T01:57:00;14.20;99.90
13598;DHT22;38563;54.258;12.574;2023-08-08T01:59:34;14.20;99.90
13598;DHT22;38563;54.258;12.574;2023-08-08T02:02:04;14.20;99.90
13598;DHT22;38563;54.258;12.574;2023-08-08T02:04:38;14.20;99.90
13598;DHT22;38563;54.258;12.574;2023-08-08T02:07:11;14.20;99.90
13598;DHT22;38563;54.258;12.574;2023-08-08T02:09:48;14.20;99.90
13598;DHT22;38563;54.258;12.574;2023-08-08T02:12:19;14.20;99.90
13598;DHT22;38563;54.258;12.574;2023-08-08T02:14:49;14.20;99.90
13598;DHT22;38563;54.258;12.574;2023-08-08T02:17:20;14.20;99.90
13598;DHT22;38563;54.258;12.574;2023-08-08T02:19:56;14.20;99.90
13598;DHT22;38563;54.258;12.574;2023-08-08T02:22:30;14.10;99.90
13598;DHT22;38563;54.258;12.574;2023-08-08T02:25:01;14.00;99.90
13598;DHT22;38563;54.258;12.574;2023-08-08T02:27:37;14.00;99.90
13598;DHT22;38563;54.258;12.574;2023-08-08T02:30:13;14.00;99.90
13598;DHT22;38563;54.258;12.574;2023-08-08T02:32:48;14.10;99.90
13598;DHT22;38563;54.258;12.574;2023-08-08T02:35:19;14.00;99.90
13598;DHT22;38563;54.258;12.574;2023-08-08T02:37:49;13.90;99.90
13598;DHT22;38563;54.258;12.574;2023-08-08T02:40:20;13.80;99.90
13598;DHT22;38563;54.258;12.574;2023-08-08T02:43:06;13.90;99.90
13598;DHT22;38563;54.258;12.574;2023-08-08T02:45:43;13.90;99.90
13598;DHT22;38563;54.258;12.574;2023-08-08T02:48:32;13.80;99.90
13598;DHT22;38563;54.258;12.574;2023-08-08T02:51:11;13.80;99.90
13598;DHT22;38563;54.258;12.574;2023-08-08T02:53:58;13.80;99.90
13598;DHT22;38563;54.258;12.574;2023-08-08T02:56:35;13.70;99.90
13598;DHT22;38563;54.258;12.574;2023-08-08T02:59:30;13.50;99.90
13598;DHT22;38563;54.258;12.574;2023-08-08T03:02:11;13.40;99.90
13598;DHT22;38563;54.258;12.574;2023-08-08T03:05:03;13.40;99.90
13598;DHT22;38563;54.258;12.574;2023-08-08T03:07:52;13.60;99.90
13598;DHT22;38563;54.258;12.574;2023-08-08T03:10:37;13.60;99.90
13598;DHT22;38563;54.258;12.574;2023-08-08T03:13:18;13.70;99.90
13598;DHT22;38563;54.258;12.574;2023-08-08T03:15:57;13.70;99.90
13598;DHT22;38563;54.258;12.574;2023-08-08T03:18:27;13.80;99.90
13598;DHT22;38563;54.258;12.574;2023-08-08T03:21:01;13.80;99.90
13598;DHT22;38563;54.258;12.574;2023-08-08T03:23:33;13.70;99.90
13598;DHT22;38563;54.258;12.574;2023-08-08T03:26:06;13.50;99.90
13598;DHT22;38563;54.258;12.574;2023-08-08T03:28:48;13.30;99.90
13598;DHT22;38563;54.258;12.574;2023-08-08T03:31:27;13.10;99.90
13598;DHT22;38563;54.258;12.574;2023-08-08T03:33:59;13.00;99.90
13598;DHT22;38563;54.258;12.574;2023-08-08T03:36:34;13.00;99.90
13598;DHT22;38563;54.258;12.574;2023-08-08T03:39:11;12.90;99.90
13598;DHT22;38563;54.258;12.574;2023-08-08T03:41:46;12.90;99.90
13598;DHT22;38563;54.258;12.574;2023-08-08T03:44:29;12.90;99.90
13598;DHT22;38563;54.258;12.574;2023-08-08T03:47:03;12.80;99.90
13598;DHT22;38563;54.258;12.574;2023-08-08T03:49:49;12.80;99.90
13598;DHT22;38563;54.258;12.574;2023-08-08T03:52:24;12.80;99.90
13598;DHT22;38563;54.258;12.574;2023-08-08T03:54:53;12.80;99.90
13598;DHT22;38563;54.258;12.574;2023-08-08T03:57:52;12.90;99.90
13598;DHT22;38563;54.258;12.574;2023-08-08T04:00:40;12.90;99.90
13598;DHT22;38563;54.258;12.574;2023-08-08T04:03:31;12.90;99.90
13598;DHT22;38563;54.258;12.574;2023-08-08T04:06:02;12.90;99.90
13598;DHT22;38563;54.258;12.574;2023-08-08T04:08:36;12.90;99.90
13598;DHT22;38563;54.258;12.574;2023-08-08T04:11:10;12.80;99.90
13598;DHT22;38563;54.258;12.574;2023-08-08T04:13:39;12.80;99.90
13598;DHT22;38563;54.258;12.574;2023-08-08T04:16:18;12.80;99.90
13598;DHT22;38563;54.258;12.574;2023-08-08T04:18:58;12.80;99.90
13598;DHT22;38563;54.258;12.574;2023-08-08T04:21:34;12.90;99.90
13598;DHT22;38563;54.258;12.574;2023-08-08T04:24:11;12.80;99.90
13598;DHT22;38563;54.258;12.574;2023-08-08T04:26:53;12.80;99.90
13598;DHT22;38563;54.258;12.574;2023-08-08T04:29:41;12.80;99.90
13598;DHT22;38563;54.258;12.574;2023-08-08T04:32:16;12.90;99.90
13598;DHT22;38563;54.258;12.574;2023-08-08T04:34:47;12.90;99.90
13598;DHT22;38563;54.258;12.574;2023-08-08T04:37:17;12.90;99.90
13598;DHT22;38563;54.258;12.574;2023-08-08T04:39:48;12.90;99.90
13598;DHT22;38563;54.258;12.574;2023-08-08T04:42:37;12.80;99.90
13598;DHT22;38563;54.258;12.574;2023-08-08T04:45:29;12.80;99.90
13598;DHT22;38563;54.258;12.574;2023-08-08T04:48:16;12.70;99.90
13598;DHT22;38563;54.258;12.574;2023-08-08T04:50:46;12.80;99.90
13598;DHT22;38563;54.258;12.574;2023-08-08T04:53:12;12.90;99.90
13598;DHT22;38563;54.258;12.574;2023-08-08T04:55:39;13.00;99.90
13598;DHT22;38563;54.258;12.574;2023-08-08T04:58:06;13.00;99.90
13598;DHT22;38563;54.258;12.574;2023-08-08T05:00:33;13.00;99.90
13598;DHT22;38563;54.258;12.574;2023-08-08T05:03:00;13.10;99.90
13598;DHT22;38563;54.258;12.574;2023-08-08T05:05:26;13.20;99.90
13598;DHT22;38563;54.258;12.574;2023-08-08T05:07:55;13.20;99.90
13598;DHT22;38563;54.258;12.574;2023-08-08T05:10:21;13.30;99.90
13598;DHT22;38563;54.258;12.574;2023-08-08T05:12:48;13.30;99.90
13598;DHT22;38563;54.258;12.574;2023-08-08T05:15:15;13.30;99.90
13598;DHT22;38563;54.258;12.574;2023-08-08T05:17:42;13.30;99.90
13598;DHT22;38563;54.258;12.574;2023-08-08T05:20:09;13.30;99.90
13598;DHT22;38563;54.258;12.574;2023-08-08T05:22:37;13.40;99.90
13598;DHT22;38563;54.258;12.574;2023-08-08T05:25:06;13.60;99.90
13598;DHT22;38563;54.258;12.574;2023-08-08T05:27:33;13.60;99.90
13598;DHT22;38563;54.258;12.574;2023-08-08T05:30:00;13.60;99.90
13598;DHT22;38563;54.258;12.574;2023-08-08T05:32:27;13.70;99.90
13598;DHT22;38563;54.258;12.574;2023-08-08T05:34:54;13.80;99.90
13598;DHT22;38563;54.258;12.574;2023-08-08T05:37:22;13.90;99.90
13598;DHT22;38563;54.258;12.574;2023-08-08T05:39:49;14.00;99.90
13598;DHT22;38563;54.258;12.574;2023-08-08T05:42:17;14.20;99.90
13598;DHT22;38563;54.258;12.574;2023-08-08T05:44:44;14.30;99.90
13598;DHT22;38563;54.258;12.574;2023-08-08T05:47:11;14.40;99.90
13598;DHT22;38563;54.258;12.574;2023-08-08T05:49:38;14.40;99.90
13598;DHT22;38563;54.258;12.574;2023-08-08T05:52:07;14.40;99.90
13598;DHT22;38563;54.258;12.574;2023-08-08T05:54:33;14.50;99.90
13598;DHT22;38563;54.258;12.574;2023-08-08T05:57:01;14.40;99.90
13598;DHT22;38563;54.258;12.574;2023-08-08T05:59:30;14.30;99.90
13598;DHT22;38563;54.258;12.574;2023-08-08T06:01:56;14.30;99.90
13598;DHT22;38563;54.258;12.574;2023-08-08T06:04:24;14.20;99.90
13598;DHT22;38563;54.258;12.574;2023-08-08T06:06:51;14.20;99.90
13598;DHT22;38563;54.258;12.574;2023-08-08T06:09:18;14.10;99.90
13598;DHT22;38563;54.258;12.574;2023-08-08T06:11:45;14.10;99.90
13598;DHT22;38563;54.258;12.574;2023-08-08T06:14:12;14.10;99.90
13598;DHT22;38563;54.258;12.574;2023-08-08T06:16:40;14.10;99.90
13598;DHT22;38563;54.258;12.574;2023-08-08T06:19:07;14.10;99.90
13598;DHT22;38563;54.258;12.574;2023-08-08T06:21:34;14.10;99.90
13598;DHT22;38563;54.258;12.574;2023-08-08T06:24:00;14.20;99.90
13598;DHT22;38563;54.258;12.574;2023-08-08T06:26:28;14.30;99.90
13598;DHT22;38563;54.258;12.574;2023-08-08T06:28:54;14.30;99.90
13598;DHT22;38563;54.258;12.574;2023-08-08T06:31:21;14.40;99.90
13598;DHT22;38563;54.258;12.574;2023-08-08T06:33:49;14.60;99.90
13598;DHT22;38563;54.258;12.574;2023-08-08T06:36:16;14.70;99.90
13598;DHT22;38563;54.258;12.574;2023-08-08T06:38:43;14.70;99.90
13598;DHT22;38563;54.258;12.574;2023-08-08T06:41:09;14.90;99.90
13598;DHT22;38563;54.258;12.574;2023-08-08T06:43:36;14.90;99.90
13598;DHT22;38563;54.258;12.574;2023-08-08T06:46:03;14.90;99.90
13598;DHT22;38563;54.258;12.574;2023-08-08T06:48:30;14.90;99.90
13598;DHT22;38563;54.258;12.574;2023-08-08T06:50:58;15.10;99.90
13598;DHT22;38563;54.258;12.574;2023-08-08T06:53:25;15.20;99.90
13598;DHT22;38563;54.258;12.574;2023-08-08T06:55:51;15.10;99.90
13598;DHT22;38563;54.258;12.574;2023-08-08T06:58:18;15.20;99.90
13598;DHT22;38563;54.258;12.574;2023-08-08T07:00:45;15.20;99.90
13598;DHT22;38563;54.258;12.574;2023-08-08T07:03:11;15.20;99.90
13598;DHT22;38563;54.258;12.574;2023-08-08T07:05:38;15.20;99.90
13598;DHT22;38563;54.258;12.574;2023-08-08T07:08:06;15.20;99.90
13598;DHT22;38563;54.258;12.574;2023-08-08T07:10:34;15.30;99.90
13598;DHT22;38563;54.258;12.574;2023-08-08T07:13:01;15.30;99.90
13598;DHT22;38563;54.258;12.574;2023-08-08T07:15:28;15.40;99.90
13598;DHT22;38563;54.258;12.574;2023-08-08T07:17:55;15.60;99.90
13598;DHT22;38563;54.258;12.574;2023-08-08T07:20:22;15.70;99.90
13598;DHT22;38563;54.258;12.574;2023-08-08T07:22:49;15.80;99.90
13598;DHT22;38563;54.258;12.574;2023-08-08T07:25:17;15.80;99.90
13598;DHT22;38563;54.258;12.574;2023-08-08T07:27:44;15.90;99.90
13598;DHT22;38563;54.258;12.574;2023-08-08T07:30:12;15.90;99.90
13598;DHT22;38563;54.258;12.574;2023-08-08T07:32:39;15.90;99.90
13598;DHT22;38563;54.258;12.574;2023-08-08T07:35:06;15.90;99.90
13598;DHT22;38563;54.258;12.574;2023-08-08T07:37:34;15.90;99.90
13598;DHT22;38563;54.258;12.574;2023-08-08T07:40:02;15.90;99.90
13598;DHT22;38563;54.258;12.574;2023-08-08T07:42:30;15.90;99.90
13598;DHT22;38563;54.258;12.574;2023-08-08T07:44:57;16.00;99.90
13598;DHT22;38563;54.258;12.574;2023-08-08T07:47:24;16.20;99.90
13598;DHT22;38563;54.258;12.574;2023-08-08T07:49:51;16.20;99.90
13598;DHT22;38563;54.258;12.574;2023-08-08T07:52:17;16.20;99.90
13598;DHT22;38563;54.258;12.574;2023-08-08T07:54:44;16.00;99.90
13598;DHT22;38563;54.258;12.574;2023-08-08T07:57:11;16.00;99.90
13598;DHT22;38563;54.258;12.574;2023-08-08T07:59:39;16.20;99.90
13598;DHT22;38563;54.258;12.574;2023-08-08T08:02:05;16.30;99.90
13598;DHT22;38563;54.258;12.574;2023-08-08T08:04:33;16.50;99.90
13598;DHT22;38563;54.258;12.574;2023-08-08T08:07:00;16.60;99.90
13598;DHT22;38563;54.258;12.574;2023-08-08T08:09:26;16.60;99.90
13598;DHT22;38563;54.258;12.574;2023-08-08T08:11:53;16.60;99.90
13598;DHT22;38563;54.258;12.574;2023-08-08T08:14:20;16.30;99.90
13598;DHT22;38563;54.258;12.574;2023-08-08T08:16:49;16.00;99.90
13598;DHT22;38563;54.258;12.574;2023-08-08T08:19:15;16.00;99.90
13598;DHT22;38563;54.258;12.574;2023-08-08T08:21:42;16.20;99.90
13598;DHT22;38563;54.258;12.574;2023-08-08T08:24:09;16.20;99.90
13598;DHT22;38563;54.258;12.574;2023-08-08T08:26:36;16.10;99.90
13598;DHT22;38563;54.258;12.574;2023-08-08T08:29:02;16.10;99.90
13598;DHT22;38563;54.258;12.574;2023-08-08T08:31:29;16.00;99.90
13598;DHT22;38563;54.258;12.574;2023-08-08T08:33:57;15.70;99.90
13598;DHT22;38563;54.258;12.574;2023-08-08T08:36:24;15.10;99.90
13598;DHT22;38563;54.258;12.574;2023-08-08T08:38:51;14.70;99.90
13598;DHT22;38563;54.258;12.574;2023-08-08T08:41:20;15.00;99.90
13598;DHT22;38563;54.258;12.574;2023-08-08T08:43:49;15.20;99.90
13598;DHT22;38563;54.258;12.574;2023-08-08T08:46:21;15.30;99.90
13598;DHT22;38563;54.258;12.574;2023-08-08T08:48:49;15.70;99.90
13598;DHT22;38563;54.258;12.574;2023-08-08T08:51:18;15.70;99.90
13598;DHT22;38563;54.258;12.574;2023-08-08T08:53:45;15.60;99.90
13598;DHT22;38563;54.258;12.574;2023-08-08T08:56:13;15.80;99.90
13598;DHT22;38563;54.258;12.574;2023-08-08T08:58:40;15.60;99.90
13598;DHT22;38563;54.258;12.574;2023-08-08T09:01:07;15.50;99.90
13598;DHT22;38563;54.258;12.574;2023-08-08T09:03:34;16.10;99.90
13598;DHT22;38563;54.258;12.574;2023-08-08T09:06:01;16.40;99.90
13598;DHT22;38563;54.258;12.574;2023-08-08T09:08:30;16.60;99.90
13598;DHT22;38563;54.258;12.574;2023-08-08T09:10:57;17.20;99.90
13598;DHT22;38563;54.258;12.574;2023-08-08T09:13:23;17.10;99.90
13598;DHT22;38563;54.258;12.574;2023-08-08T09:15:52;17.30;99.90
13598;DHT22;38563;54.258;12.574;2023-08-08T09:18:23;17.40;99.90
13598;DHT22;38563;54.258;12.574;2023-08-08T09:20:50;17.50;99.90
13598;DHT22;38563;54.258;12.574;2023-08-08T09:23:17;17.70;99.90
13598;DHT22;38563;54.258;12.574;2023-08-08T09:25:45;17.50;99.90
13598;DHT22;38563;54.258;12.574;2023-08-08T09:28:12;17.40;99.90
13598;DHT22;38563;54.258;12.574;2023-08-08T09:30:38;17.70;99.90
13598;DHT22;38563;54.258;12.574;2023-08-08T09:33:07;17.60;99.90
13598;DHT22;38563;54.258;12.574;2023-08-08T09:35:34;17.60;99.90
13598;DHT22;38563;54.258;12.574;2023-08-08T09:38:04;17.70;99.90
13598;DHT22;38563;54.258;12.574;2023-08-08T09:40:31;17.40;99.90
13598;DHT22;38563;54.258;12.574;2023-08-08T09:42:59;17.20;99.90
13598;DHT22;38563;54.258;12.574;2023-08-08T09:45:26;17.00;99.90
13598;DHT22;38563;54.258;12.574;2023-08-08T09:47:52;17.20;99.90
13598;DHT22;38563;54.258;12.574;2023-08-08T09:50:19;17.20;99.90
13598;DHT22;38563;54.258;12.574;2023-08-08T09:52:47;17.20;99.90
13598;DHT22;38563;54.258;12.574;2023-08-08T09:55:15;17.50;99.90
13598;DHT22;38563;54.258;12.574;2023-08-08T09:57:42;17.80;99.90
13598;DHT22;38563;54.258;12.574;2023-08-08T10:00:11;17.90;99.90
13598;DHT22;38563;54.258;12.574;2023-08-08T10:02:42;17.50;99.90
13598;DHT22;38563;54.258;12.574;2023-08-08T10:05:10;17.10;99.90
13598;DHT22;38563;54.258;12.574;2023-08-08T10:07:37;17.40;99.90
13598;DHT22;38563;54.258;12.574;2023-08-08T10:10:07;17.80;99.90
13598;DHT22;38563;54.258;12.574;2023-08-08T10:12:36;18.10;99.90
13598;DHT22;38563;54.258;12.574;2023-08-08T10:15:04;18.40;99.90
13598;DHT22;38563;54.258;12.574;2023-08-08T10:17:36;18.70;99.90
13598;DHT22;38563;54.258;12.574;2023-08-08T10:20:04;18.70;99.90
13598;DHT22;38563;54.258;12.574;2023-08-08T10:22:37;18.50;99.90
13598;DHT22;38563;54.258;12.574;2023-08-08T10:25:05;18.30;99.90
13598;DHT22;38563;54.258;12.574;2023-08-08T10:27:32;18.30;99.90
13598;DHT22;38563;54.258;12.574;2023-08-08T10:30:04;17.80;99.90
13598;DHT22;38563;54.258;12.574;2023-08-08T10:32:43;17.30;99.90
13598;DHT22;38563;54.258;12.574;2023-08-08T10:35:12;16.20;99.90
13598;DHT22;38563;54.258;12.574;2023-08-08T10:37:39;15.20;99.90
13598;DHT22;38563;54.258;12.574;2023-08-08T10:40:07;14.60;99.90
13598;DHT22;38563;54.258;12.574;2023-08-08T10:42:44;14.20;99.90
13598;DHT22;38563;54.258;12.574;2023-08-08T10:45:13;13.90;99.90
13598;DHT22;38563;54.258;12.574;2023-08-08T10:47:42;13.50;99.90
13598;DHT22;38563;54.258;12.574;2023-08-08T10:50:11;13.20;99.90
13598;DHT22;38563;54.258;12.574;2023-08-08T10:52:50;13.10;99.90
13598;DHT22;38563;54.258;12.574;2023-08-08T10:55:21;13.10;99.90
13598;DHT22;38563;54.258;12.574;2023-08-08T10:57:54;13.30;99.90
13598;DHT22;38563;54.258;12.574;2023-08-08T11:00:24;13.50;99.90
13598;DHT22;38563;54.258;12.574;2023-08-08T11:02:53;13.70;99.90
13598;DHT22;38563;54.258;12.574;2023-08-08T11:05:21;13.90;99.90
13598;DHT22;38563;54.258;12.574;2023-08-08T11:07:48;14.10;99.90
13598;DHT22;38563;54.258;12.574;2023-08-08T11:10:16;14.20;99.90
13598;DHT22;38563;54.258;12.574;2023-08-08T11:12:53;14.20;99.90
13598;DHT22;38563;54.258;12.574;2023-08-08T11:15:19;14.00;99.90
13598;DHT22;38563;54.258;12.574;2023-08-08T11:17:46;13.90;99.90
13598;DHT22;38563;54.258;12.574;2023-08-08T11:20:15;13.80;99.90
13598;DHT22;38563;54.258;12.574;2023-08-08T11:22:42;13.70;99.90
13598;DHT22;38563;54.258;12.574;2023-08-08T11:25:09;13.70;99.90
13598;DHT22;38563;54.258;12.574;2023-08-08T11:27:35;13.60;99.90
13598;DHT22;38563;54.258;12.574;2023-08-08T11:30:03;13.80;99.90
13598;DHT22;38563;54.258;12.574;2023-08-08T11:32:30;13.90;99.90
13598;DHT22;38563;54.258;12.574;2023-08-08T11:34:57;14.00;99.90
13598;DHT22;38563;54.258;12.574;2023-08-08T11:37:25;14.10;99.90
13598;DHT22;38563;54.258;12.574;2023-08-08T11:39:52;14.20;99.90
13598;DHT22;38563;54.258;12.574;2023-08-08T11:42:19;14.20;99.90
13598;DHT22;38563;54.258;12.574;2023-08-08T11:44:45;14.10;99.90
13598;DHT22;38563;54.258;12.574;2023-08-08T11:47:13;14.10;99.90
13598;DHT22;38563;54.258;12.574;2023-08-08T11:49:40;14.20;99.90
13598;DHT22;38563;54.258;12.574;2023-08-08T11:52:07;14.40;99.90
13598;DHT22;38563;54.258;12.574;2023-08-08T11:54:37;14.60;99.90
13598;DHT22;38563;54.258;12.574;2023-08-08T11:57:04;14.80;99.90
13598;DHT22;38563;54.258;12.574;2023-08-08T11:59:31;14.90;99.90
13598;DHT22;38563;54.258;12.574;2023-08-08T12:01:58;14.80;99.90
13598;DHT22;38563;54.258;12.574;2023-08-08T12:04:25;14.70;99.90
13598;DHT22;38563;54.258;12.574;2023-08-08T12:07:00;14.40;99.90
13598;DHT22;38563;54.258;12.574;2023-08-08T12:09:29;14.30;99.90
13598;DHT22;38563;54.258;12.574;2023-08-08T12:12:00;14.30;99.90
13598;DHT22;38563;54.258;12.574;2023-08-08T12:14:26;14.60;99.90
13598;DHT22;38563;54.258;12.574;2023-08-08T12:16:53;14.70;99.90
13598;DHT22;38563;54.258;12.574;2023-08-08T12:19:23;14.80;99.90
13598;DHT22;38563;54.258;12.574;2023-08-08T12:21:50;15.40;99.90
13598;DHT22;38563;54.258;12.574;2023-08-08T12:24:17;15.60;99.90
13598;DHT22;38563;54.258;12.574;2023-08-08T12:26:44;15.60;99.90
13598;DHT22;38563;54.258;12.574;2023-08-08T12:29:12;15.60;99.90
13598;DHT22;38563;54.258;12.574;2023-08-08T12:31:39;15.70;99.90
13598;DHT22;38563;54.258;12.574;2023-08-08T12:34:06;15.90;99.90
13598;DHT22;38563;54.258;12.574;2023-08-08T12:36:33;16.10;99.90
13598;DHT22;38563;54.258;12.574;2023-08-08T12:39:00;16.40;99.90
13598;DHT22;38563;54.258;12.574;2023-08-08T12:41:27;16.90;99.90
13598;DHT22;38563;54.258;12.574;2023-08-08T12:43:55;17.00;99.90
13598;DHT22;38563;54.258;12.574;2023-08-08T12:46:23;16.80;99.90
13598;DHT22;38563;54.258;12.574;2023-08-08T12:48:49;16.50;99.90
13598;DHT22;38563;54.258;12.574;2023-08-08T12:51:16;16.20;99.90
13598;DHT22;38563;54.258;12.574;2023-08-08T12:53:44;15.90;99.90
13598;DHT22;38563;54.258;12.574;2023-08-08T12:56:10;15.70;99.90
13598;DHT22;38563;54.258;12.574;2023-08-08T12:58:37;15.50;99.90
13598;DHT22;38563;54.258;12.574;2023-08-08T13:01:04;15.50;99.90
13598;DHT22;38563;54.258;12.574;2023-08-08T13:03:32;15.40;99.90
13598;DHT22;38563;54.258;12.574;2023-08-08T13:05:59;15.10;99.90
13598;DHT22;38563;54.258;12.574;2023-08-08T13:08:26;14.60;99.90
13598;DHT22;38563;54.258;12.574;2023-08-08T13:10:53;13.70;99.90
13598;DHT22;38563;54.258;12.574;2023-08-08T13:13:19;13.30;99.90
13598;DHT22;38563;54.258;12.574;2023-08-08T13:15:50;12.70;99.90
13598;DHT22;38563;54.258;12.574;2023-08-08T13:18:17;12.40;99.90
13598;DHT22;38563;54.258;12.574;2023-08-08T13:20:45;12.10;99.90
13598;DHT22;38563;54.258;12.574;2023-08-08T13:23:11;12.10;99.90
13598;DHT22;38563;54.258;12.574;2023-08-08T13:25:39;12.00;99.90
13598;DHT22;38563;54.258;12.574;2023-08-08T13:28:06;11.90;99.90
13598;DHT22;38563;54.258;12.574;2023-08-08T13:30:33;12.00;99.90
13598;DHT22;38563;54.258;12.574;2023-08-08T13:33:01;12.10;99.90
13598;DHT22;38563;54.258;12.574;2023-08-08T13:35:27;12.40;99.90
13598;DHT22;38563;54.258;12.574;2023-08-08T13:37:56;12.60;99.90
13598;DHT22;38563;54.258;12.574;2023-08-08T13:40:23;12.90;99.90
13598;DHT22;38563;54.258;12.574;2023-08-08T13:42:50;13.10;99.90
13598;DHT22;38563;54.258;12.574;2023-08-08T13:45:17;13.30;99.90
13598;DHT22;38563;54.258;12.574;2023-08-08T13:47:44;13.50;99.90
13598;DHT22;38563;54.258;12.574;2023-08-08T13:50:11;13.90;99.90
13598;DHT22;38563;54.258;12.574;2023-08-08T13:52:39;14.20;99.90
13598;DHT22;38563;54.258;12.574;2023-08-08T13:55:08;14.30;99.90
13598;DHT22;38563;54.258;12.574;2023-08-08T13:57:35;14.10;99.90
13598;DHT22;38563;54.258;12.574;2023-08-08T14:00:02;13.90;99.90
13598;DHT22;38563;54.258;12.574;2023-08-08T14:02:33;13.70;99.90
13598;DHT22;38563;54.258;12.574;2023-08-08T14:05:00;13.70;99.90
13598;DHT22;38563;54.258;12.574;2023-08-08T14:07:26;13.70;99.90
13598;DHT22;38563;54.258;12.574;2023-08-08T14:09:53;13.50;99.90
13598;DHT22;38563;54.258;12.574;2023-08-08T14:12:21;13.50;99.90
13598;DHT22;38563;54.258;12.574;2023-08-08T14:14:48;13.50;99.90
13598;DHT22;38563;54.258;12.574;2023-08-08T14:17:14;13.40;99.90
13598;DHT22;38563;54.258;12.574;2023-08-08T14:19:41;13.40;99.90
13598;DHT22;38563;54.258;12.574;2023-08-08T14:22:08;13.40;99.90
13598;DHT22;38563;54.258;12.574;2023-08-08T14:24:36;13.40;99.90
13598;DHT22;38563;54.258;12.574;2023-08-08T14:27:03;13.40;99.90
13598;DHT22;38563;54.258;12.574;2023-08-08T14:29:31;13.50;99.90
13598;DHT22;38563;54.258;12.574;2023-08-08T14:31:57;13.50;99.90
13598;DHT22;38563;54.258;12.574;2023-08-08T14:34:29;13.60;99.90
13598;DHT22;38563;54.258;12.574;2023-08-08T14:36:56;13.90;99.90
13598;DHT22;38563;54.258;12.574;2023-08-08T14:39:23;14.10;99.90
13598;DHT22;38563;54.258;12.574;2023-08-08T14:41:50;14.20;99.90
13598;DHT22;38563;54.258;12.574;2023-08-08T14:44:17;14.50;99.90
13598;DHT22;38563;54.258;12.574;2023-08-08T14:46:45;14.80;99.90
13598;DHT22;38563;54.258;12.574;2023-08-08T14:49:12;15.20;99.90
13598;DHT22;38563;54.258;12.574;2023-08-08T14:51:38;15.40;99.90
13598;DHT22;38563;54.258;12.574;2023-08-08T14:54:05;15.10;99.90
13598;DHT22;38563;54.258;12.574;2023-08-08T14:56:32;14.80;99.90
13598;DHT22;38563;54.258;12.574;2023-08-08T14:58:58;14.50;99.90
13598;DHT22;38563;54.258;12.574;2023-08-08T15:01:25;14.20;99.90
13598;DHT22;38563;54.258;12.574;2023-08-08T15:03:53;14.00;99.90
13598;DHT22;38563;54.258;12.574;2023-08-08T15:06:22;13.60;99.90
13598;DHT22;38563;54.258;12.574;2023-08-08T15:08:49;13.30;99.90
13598;DHT22;38563;54.258;12.574;2023-08-08T15:11:16;13.20;99.90
13598;DHT22;38563;54.258;12.574;2023-08-08T15:13:43;13.30;99.90
13598;DHT22;38563;54.258;12.574;2023-08-08T15:16:09;13.30;99.90
13598;DHT22;38563;54.258;12.574;2023-08-08T15:18:36;13.40;99.90
13598;DHT22;38563;54.258;12.574;2023-08-08T15:21:04;13.50;99.90
13598;DHT22;38563;54.258;12.574;2023-08-08T15:23:31;13.70;99.90
13598;DHT22;38563;54.258;12.574;2023-08-08T15:25:58;13.90;99.90
13598;DHT22;38563;54.258;12.574;2023-08-08T15:28:25;13.90;99.90
13598;DHT22;38563;54.258;12.574;2023-08-08T15:30:52;14.00;99.90
13598;DHT22;38563;54.258;12.574;2023-08-08T15:33:19;14.30;99.90
13598;DHT22;38563;54.258;12.574;2023-08-08T15:35:45;14.70;99.90